sensor_id;sensor_type;location;lat;lon;timestamp;P1;durP1;ratioP1;P2;durP2;ratioP2
11749;SDS011;5932;42.656;23.236;2022-08-05T00:01:18;2.40;;;2.20;;
11749;SDS011;5932;42.656;23.236;2022-08-05T00:03:47;2.38;;;2.17;;
11749;SDS011;5932;42.656;23.236;2022-08-05T00:06:14;2.97;;;2.00;;
11749;SDS011;5932;42.656;23.236;2022-08-05T00:08:41;2.25;;;2.05;;
11749;SDS011;5932;42.656;23.236;2022-08-05T00:11:09;2.45;;;2.25;;
11749;SDS011;5932;42.656;23.236;2022-08-05T00:13:39;3.78;;;2.30;;
11749;SDS011;5932;42.656;23.236;2022-08-05T00:16:07;2.97;;;2.35;;
11749;SDS011;5932;42.656;23.236;2022-08-05T00:18:35;2.70;;;1.90;;
11749;SDS011;5932;42.656;23.236;2022-08-05T00:21:02;2.40;;;2.20;;
11749;SDS011;5932;42.656;23.236;2022-08-05T00:23:30;2.85;;;2.03;;
11749;SDS011;5932;42.656;23.236;2022-08-05T00:25:56;2.38;;;2.17;;
11749;SDS011;5932;42.656;23.236;2022-08-05T00:28:23;3.25;;;2.40;;
11749;SDS011;5932;42.656;23.236;2022-08-05T00:30:51;5.22;;;2.40;;
11749;SDS011;5932;42.656;23.236;2022-08-05T00:33:18;3.75;;;2.13;;
11749;SDS011;5932;42.656;23.236;2022-08-05T00:35:45;4.15;;;2.50;;
11749;SDS011;5932;42.656;23.236;2022-08-05T00:38:12;2.78;;;2.40;;
11749;SDS011;5932;42.656;23.236;2022-08-05T00:40:44;3.00;;;2.20;;
11749;SDS011;5932;42.656;23.236;2022-08-05T00:43:13;3.55;;;2.20;;
11749;SDS011;5932;42.656;23.236;2022-08-05T00:45:39;3.70;;;2.50;;
11749;SDS011;5932;42.656;23.236;2022-08-05T00:48:08;2.92;;;2.40;;
11749;SDS011;5932;42.656;23.236;2022-08-05T00:50:37;2.60;;;2.30;;
11749;SDS011;5932;42.656;23.236;2022-08-05T00:53:04;3.15;;;2.35;;
11749;SDS011;5932;42.656;23.236;2022-08-05T00:55:31;3.92;;;2.53;;
11749;SDS011;5932;42.656;23.236;2022-08-05T00:57:58;2.40;;;2.30;;
11749;SDS011;5932;42.656;23.236;2022-08-05T01:00:26;2.78;;;2.40;;
11749;SDS011;5932;42.656;23.236;2022-08-05T01:02:53;3.40;;;2.13;;
11749;SDS011;5932;42.656;23.236;2022-08-05T01:05:22;3.10;;;2.20;;
11749;SDS011;5932;42.656;23.236;2022-08-05T01:07:49;2.65;;;2.40;;
11749;SDS011;5932;42.656;23.236;2022-08-05T01:10:17;2.42;;;2.22;;
11749;SDS011;5932;42.656;23.236;2022-08-05T01:12:47;2.40;;;2.20;;
11749;SDS011;5932;42.656;23.236;2022-08-05T01:15:21;2.97;;;2.30;;
11749;SDS011;5932;42.656;23.236;2022-08-05T01:17:56;2.53;;;2.33;;
11749;SDS011;5932;42.656;23.236;2022-08-05T01:20:30;2.88;;;2.58;;
11749;SDS011;5932;42.656;23.236;2022-08-05T01:23:07;2.97;;;2.45;;
11749;SDS011;5932;42.656;23.236;2022-08-05T01:25:43;4.45;;;2.53;;
11749;SDS011;5932;42.656;23.236;2022-08-05T01:28:26;2.53;;;2.33;;
11749;SDS011;5932;42.656;23.236;2022-08-05T01:30:58;3.90;;;2.50;;
11749;SDS011;5932;42.656;23.236;2022-08-05T01:33:30;2.60;;;2.40;;
11749;SDS011;5932;42.656;23.236;2022-08-05T01:36:00;2.85;;;2.58;;
11749;SDS011;5932;42.656;23.236;2022-08-05T01:38:32;3.83;;;2.20;;
11749;SDS011;5932;42.656;23.236;2022-08-05T01:41:01;4.18;;;2.40;;
11749;SDS011;5932;42.656;23.236;2022-08-05T01:43:32;3.80;;;2.78;;
11749;SDS011;5932;42.656;23.236;2022-08-05T01:46:00;2.40;;;2.20;;
11749;SDS011;5932;42.656;23.236;2022-08-05T01:48:27;2.47;;;2.25;;
11749;SDS011;5932;42.656;23.236;2022-08-05T01:50:57;3.00;;;2.28;;
11749;SDS011;5932;42.656;23.236;2022-08-05T01:53:24;3.35;;;2.33;;
11749;SDS011;5932;42.656;23.236;2022-08-05T01:55:52;2.55;;;2.35;;
11749;SDS011;5932;42.656;23.236;2022-08-05T01:58:25;4.47;;;2.13;;
11749;SDS011;5932;42.656;23.236;2022-08-05T02:00:54;2.80;;;2.33;;
11749;SDS011;5932;42.656;23.236;2022-08-05T02:03:24;3.50;;;2.38;;
11749;SDS011;5932;42.656;23.236;2022-08-05T02:05:54;3.28;;;2.30;;
11749;SDS011;5932;42.656;23.236;2022-08-05T02:08:21;2.65;;;2.45;;
11749;SDS011;5932;42.656;23.236;2022-08-05T02:10:50;3.63;;;2.40;;
11749;SDS011;5932;42.656;23.236;2022-08-05T02:13:19;2.67;;;2.47;;
11749;SDS011;5932;42.656;23.236;2022-08-05T02:15:54;2.75;;;2.55;;
11749;SDS011;5932;42.656;23.236;2022-08-05T02:18:29;2.53;;;2.33;;
11749;SDS011;5932;42.656;23.236;2022-08-05T02:20:59;4.90;;;2.40;;
11749;SDS011;5932;42.656;23.236;2022-08-05T02:23:31;2.67;;;2.47;;
11749;SDS011;5932;42.656;23.236;2022-08-05T02:26:02;3.40;;;2.60;;
11749;SDS011;5932;42.656;23.236;2022-08-05T02:28:31;2.60;;;2.35;;
11749;SDS011;5932;42.656;23.236;2022-08-05T02:31:04;3.28;;;2.65;;
11749;SDS011;5932;42.656;23.236;2022-08-05T02:33:34;3.83;;;2.63;;
11749;SDS011;5932;42.656;23.236;2022-08-05T02:36:07;2.75;;;2.55;;
11749;SDS011;5932;42.656;23.236;2022-08-05T02:38:37;4.28;;;2.55;;
11749;SDS011;5932;42.656;23.236;2022-08-05T02:41:07;4.03;;;2.55;;
11749;SDS011;5932;42.656;23.236;2022-08-05T02:43:36;6.00;;;3.05;;
11749;SDS011;5932;42.656;23.236;2022-08-05T02:46:05;2.92;;;2.72;;
11749;SDS011;5932;42.656;23.236;2022-08-05T02:48:33;4.10;;;2.97;;
11749;SDS011;5932;42.656;23.236;2022-08-05T02:51:00;3.08;;;2.80;;
11749;SDS011;5932;42.656;23.236;2022-08-05T02:53:29;3.17;;;2.50;;
11749;SDS011;5932;42.656;23.236;2022-08-05T02:55:57;3.50;;;2.67;;
11749;SDS011;5932;42.656;23.236;2022-08-05T02:58:25;3.15;;;2.88;;
11749;SDS011;5932;42.656;23.236;2022-08-05T03:00:52;2.85;;;2.65;;
11749;SDS011;5932;42.656;23.236;2022-08-05T03:03:23;2.95;;;2.65;;
11749;SDS011;5932;42.656;23.236;2022-08-05T03:05:51;3.78;;;2.92;;
11749;SDS011;5932;42.656;23.236;2022-08-05T03:08:19;3.97;;;2.88;;
11749;SDS011;5932;42.656;23.236;2022-08-05T03:10:46;3.42;;;3.08;;
11749;SDS011;5932;42.656;23.236;2022-08-05T03:13:13;3.13;;;2.83;;
11749;SDS011;5932;42.656;23.236;2022-08-05T03:15:41;4.57;;;2.90;;
11749;SDS011;5932;42.656;23.236;2022-08-05T03:18:08;3.70;;;2.72;;
11749;SDS011;5932;42.656;23.236;2022-08-05T03:20:36;5.85;;;3.30;;
11749;SDS011;5932;42.656;23.236;2022-08-05T03:23:05;2.85;;;2.63;;
11749;SDS011;5932;42.656;23.236;2022-08-05T03:25:34;3.20;;;2.90;;
11749;SDS011;5932;42.656;23.236;2022-08-05T03:28:03;3.05;;;2.83;;
11749;SDS011;5932;42.656;23.236;2022-08-05T03:30:31;3.90;;;3.10;;
11749;SDS011;5932;42.656;23.236;2022-08-05T03:32:59;3.08;;;2.67;;
11749;SDS011;5932;42.656;23.236;2022-08-05T03:35:26;3.08;;;2.75;;
11749;SDS011;5932;42.656;23.236;2022-08-05T03:37:56;3.72;;;2.80;;
11749;SDS011;5932;42.656;23.236;2022-08-05T03:40:24;3.28;;;2.97;;
11749;SDS011;5932;42.656;23.236;2022-08-05T03:42:51;4.13;;;2.92;;
11749;SDS011;5932;42.656;23.236;2022-08-05T03:45:18;2.97;;;2.72;;
11749;SDS011;5932;42.656;23.236;2022-08-05T03:47:45;3.97;;;2.47;;
11749;SDS011;5932;42.656;23.236;2022-08-05T03:50:12;3.63;;;3.03;;
11749;SDS011;5932;42.656;23.236;2022-08-05T03:52:41;4.93;;;2.72;;
11749;SDS011;5932;42.656;23.236;2022-08-05T03:55:23;4.10;;;2.90;;
11749;SDS011;5932;42.656;23.236;2022-08-05T03:57:52;4.63;;;3.00;;
11749;SDS011;5932;42.656;23.236;2022-08-05T04:00:21;3.90;;;2.95;;
11749;SDS011;5932;42.656;23.236;2022-08-05T04:02:54;5.90;;;2.97;;
11749;SDS011;5932;42.656;23.236;2022-08-05T04:05:26;4.30;;;2.90;;
11749;SDS011;5932;42.656;23.236;2022-08-05T04:07:57;5.95;;;2.83;;
11749;SDS011;5932;42.656;23.236;2022-08-05T04:10:27;3.83;;;2.90;;
11749;SDS011;5932;42.656;23.236;2022-08-05T04:12:55;3.33;;;2.72;;
11749;SDS011;5932;42.656;23.236;2022-08-05T04:15:22;3.05;;;2.75;;
11749;SDS011;5932;42.656;23.236;2022-08-05T04:17:49;4.88;;;3.08;;
11749;SDS011;5932;42.656;23.236;2022-08-05T04:20:16;3.78;;;2.72;;
11749;SDS011;5932;42.656;23.236;2022-08-05T04:22:44;5.28;;;3.47;;
11749;SDS011;5932;42.656;23.236;2022-08-05T04:25:12;4.57;;;3.10;;
11749;SDS011;5932;42.656;23.236;2022-08-05T04:27:40;3.75;;;3.10;;
11749;SDS011;5932;42.656;23.236;2022-08-05T04:30:07;3.67;;;3.15;;
11749;SDS011;5932;42.656;23.236;2022-08-05T04:32:35;3.85;;;3.17;;
11749;SDS011;5932;42.656;23.236;2022-08-05T04:35:02;7.60;;;3.30;;
11749;SDS011;5932;42.656;23.236;2022-08-05T04:37:29;4.95;;;3.50;;
11749;SDS011;5932;42.656;23.236;2022-08-05T04:39:57;5.18;;;3.22;;
11749;SDS011;5932;42.656;23.236;2022-08-05T04:42:24;5.70;;;3.15;;
11749;SDS011;5932;42.656;23.236;2022-08-05T04:44:52;4.43;;;3.70;;
11749;SDS011;5932;42.656;23.236;2022-08-05T04:47:19;3.60;;;3.30;;
11749;SDS011;5932;42.656;23.236;2022-08-05T04:49:45;5.38;;;3.50;;
11749;SDS011;5932;42.656;23.236;2022-08-05T04:52:12;3.90;;;3.53;;
11749;SDS011;5932;42.656;23.236;2022-08-05T04:54:39;7.72;;;3.20;;
11749;SDS011;5932;42.656;23.236;2022-08-05T04:57:06;5.00;;;3.15;;
11749;SDS011;5932;42.656;23.236;2022-08-05T04:59:33;3.38;;;3.08;;
11749;SDS011;5932;42.656;23.236;2022-08-05T05:02:03;5.60;;;3.00;;
11749;SDS011;5932;42.656;23.236;2022-08-05T05:04:30;5.70;;;3.25;;
11749;SDS011;5932;42.656;23.236;2022-08-05T05:06:56;3.60;;;3.30;;
11749;SDS011;5932;42.656;23.236;2022-08-05T05:09:23;4.60;;;3.33;;
11749;SDS011;5932;42.656;23.236;2022-08-05T05:11:50;5.43;;;3.20;;
11749;SDS011;5932;42.656;23.236;2022-08-05T05:14:17;4.10;;;2.60;;
11749;SDS011;5932;42.656;23.236;2022-08-05T05:16:43;4.70;;;3.10;;
11749;SDS011;5932;42.656;23.236;2022-08-05T05:19:12;4.47;;;2.72;;
11749;SDS011;5932;42.656;23.236;2022-08-05T05:21:38;4.50;;;3.22;;
11749;SDS011;5932;42.656;23.236;2022-08-05T05:24:05;3.83;;;3.50;;
11749;SDS011;5932;42.656;23.236;2022-08-05T05:26:32;4.85;;;3.70;;
11749;SDS011;5932;42.656;23.236;2022-08-05T05:28:59;4.03;;;3.60;;
11749;SDS011;5932;42.656;23.236;2022-08-05T05:31:27;5.05;;;3.53;;
11749;SDS011;5932;42.656;23.236;2022-08-05T05:33:54;4.50;;;3.42;;
11749;SDS011;5932;42.656;23.236;2022-08-05T05:36:22;3.90;;;3.60;;
11749;SDS011;5932;42.656;23.236;2022-08-05T05:38:48;5.43;;;3.60;;
11749;SDS011;5932;42.656;23.236;2022-08-05T05:41:15;5.32;;;3.55;;
11749;SDS011;5932;42.656;23.236;2022-08-05T05:43:42;6.68;;;3.70;;
11749;SDS011;5932;42.656;23.236;2022-08-05T05:46:09;4.25;;;3.55;;
11749;SDS011;5932;42.656;23.236;2022-08-05T05:48:35;4.20;;;3.80;;
11749;SDS011;5932;42.656;23.236;2022-08-05T05:51:02;8.15;;;3.97;;
11749;SDS011;5932;42.656;23.236;2022-08-05T05:53:30;8.30;;;4.22;;
11749;SDS011;5932;42.656;23.236;2022-08-05T05:55:57;7.57;;;4.30;;
11749;SDS011;5932;42.656;23.236;2022-08-05T05:58:24;6.13;;;4.57;;
11749;SDS011;5932;42.656;23.236;2022-08-05T06:00:51;4.53;;;3.40;;
11749;SDS011;5932;42.656;23.236;2022-08-05T06:03:17;6.68;;;4.63;;
11749;SDS011;5932;42.656;23.236;2022-08-05T06:05:44;5.82;;;3.88;;
11749;SDS011;5932;42.656;23.236;2022-08-05T06:08:11;8.45;;;4.05;;
11749;SDS011;5932;42.656;23.236;2022-08-05T06:10:40;6.05;;;4.40;;
11749;SDS011;5932;42.656;23.236;2022-08-05T06:13:07;6.60;;;4.25;;
11749;SDS011;5932;42.656;23.236;2022-08-05T06:15:34;5.82;;;3.70;;
11749;SDS011;5932;42.656;23.236;2022-08-05T06:18:00;9.32;;;4.13;;
11749;SDS011;5932;42.656;23.236;2022-08-05T06:20:27;8.98;;;3.92;;
11749;SDS011;5932;42.656;23.236;2022-08-05T06:22:54;15.38;;;4.25;;
11749;SDS011;5932;42.656;23.236;2022-08-05T06:25:20;7.95;;;4.10;;
11749;SDS011;5932;42.656;23.236;2022-08-05T06:27:49;9.82;;;4.40;;
11749;SDS011;5932;42.656;23.236;2022-08-05T06:30:15;6.10;;;4.82;;
11749;SDS011;5932;42.656;23.236;2022-08-05T06:32:42;6.78;;;4.00;;
11749;SDS011;5932;42.656;23.236;2022-08-05T06:35:09;8.38;;;5.10;;
11749;SDS011;5932;42.656;23.236;2022-08-05T06:37:36;8.40;;;4.20;;
11749;SDS011;5932;42.656;23.236;2022-08-05T06:40:04;5.50;;;3.88;;
11749;SDS011;5932;42.656;23.236;2022-08-05T06:42:31;7.78;;;4.72;;
11749;SDS011;5932;42.656;23.236;2022-08-05T06:44:59;7.22;;;4.90;;
11749;SDS011;5932;42.656;23.236;2022-08-05T06:47:26;4.78;;;4.25;;
11749;SDS011;5932;42.656;23.236;2022-08-05T06:49:52;8.05;;;4.45;;
11749;SDS011;5932;42.656;23.236;2022-08-05T06:52:19;10.98;;;4.47;;
11749;SDS011;5932;42.656;23.236;2022-08-05T06:54:46;8.48;;;4.75;;
11749;SDS011;5932;42.656;23.236;2022-08-05T06:57:13;10.98;;;4.28;;
11749;SDS011;5932;42.656;23.236;2022-08-05T06:59:42;5.30;;;3.90;;
11749;SDS011;5932;42.656;23.236;2022-08-05T07:02:10;9.10;;;4.43;;
11749;SDS011;5932;42.656;23.236;2022-08-05T07:04:37;7.32;;;4.32;;
11749;SDS011;5932;42.656;23.236;2022-08-05T07:07:04;6.03;;;4.47;;
11749;SDS011;5932;42.656;23.236;2022-08-05T07:09:31;8.43;;;4.90;;
11749;SDS011;5932;42.656;23.236;2022-08-05T07:11:58;9.63;;;4.65;;
11749;SDS011;5932;42.656;23.236;2022-08-05T07:14:24;8.02;;;4.60;;
11749;SDS011;5932;42.656;23.236;2022-08-05T07:17:10;6.25;;;4.47;;
11749;SDS011;5932;42.656;23.236;2022-08-05T07:19:37;6.35;;;4.38;;
11749;SDS011;5932;42.656;23.236;2022-08-05T07:22:04;11.80;;;4.70;;
11749;SDS011;5932;42.656;23.236;2022-08-05T07:24:31;4.95;;;4.20;;
11749;SDS011;5932;42.656;23.236;2022-08-05T07:26:58;10.13;;;4.45;;
11749;SDS011;5932;42.656;23.236;2022-08-05T07:29:25;4.97;;;4.20;;
11749;SDS011;5932;42.656;23.236;2022-08-05T07:31:52;8.60;;;4.20;;
11749;SDS011;5932;42.656;23.236;2022-08-05T07:34:20;6.30;;;4.70;;
11749;SDS011;5932;42.656;23.236;2022-08-05T07:36:46;9.40;;;4.32;;
11749;SDS011;5932;42.656;23.236;2022-08-05T07:39:13;8.02;;;3.78;;
11749;SDS011;5932;42.656;23.236;2022-08-05T07:41:40;9.48;;;4.10;;
11749;SDS011;5932;42.656;23.236;2022-08-05T07:44:08;5.90;;;4.00;;
11749;SDS011;5932;42.656;23.236;2022-08-05T07:46:35;8.80;;;3.97;;
11749;SDS011;5932;42.656;23.236;2022-08-05T07:49:02;7.70;;;4.22;;
11749;SDS011;5932;42.656;23.236;2022-08-05T07:51:31;6.07;;;4.18;;
11749;SDS011;5932;42.656;23.236;2022-08-05T07:53:59;10.15;;;3.90;;
11749;SDS011;5932;42.656;23.236;2022-08-05T07:56:26;6.70;;;4.13;;
11749;SDS011;5932;42.656;23.236;2022-08-05T07:58:53;8.05;;;3.97;;
11749;SDS011;5932;42.656;23.236;2022-08-05T08:01:20;10.30;;;3.80;;
11749;SDS011;5932;42.656;23.236;2022-08-05T08:03:50;6.47;;;3.40;;
11749;SDS011;5932;42.656;23.236;2022-08-05T08:06:16;8.48;;;3.60;;
11749;SDS011;5932;42.656;23.236;2022-08-05T08:08:45;7.57;;;4.22;;
11749;SDS011;5932;42.656;23.236;2022-08-05T08:11:11;3.88;;;3.47;;
11749;SDS011;5932;42.656;23.236;2022-08-05T08:13:39;4.95;;;3.40;;
11749;SDS011;5932;42.656;23.236;2022-08-05T08:16:06;6.68;;;3.63;;
11749;SDS011;5932;42.656;23.236;2022-08-05T08:18:33;6.57;;;3.22;;
11749;SDS011;5932;42.656;23.236;2022-08-05T08:21:00;3.92;;;3.10;;
11749;SDS011;5932;42.656;23.236;2022-08-05T08:23:26;5.60;;;2.90;;
11749;SDS011;5932;42.656;23.236;2022-08-05T08:25:54;3.83;;;2.97;;
11749;SDS011;5932;42.656;23.236;2022-08-05T08:28:21;3.22;;;2.90;;
11749;SDS011;5932;42.656;23.236;2022-08-05T08:30:48;3.50;;;3.20;;
11749;SDS011;5932;42.656;23.236;2022-08-05T08:33:15;6.78;;;3.10;;
11749;SDS011;5932;42.656;23.236;2022-08-05T08:35:42;2.92;;;2.58;;
11749;SDS011;5932;42.656;23.236;2022-08-05T08:38:08;4.97;;;2.53;;
11749;SDS011;5932;42.656;23.236;2022-08-05T08:40:37;2.88;;;2.60;;
11749;SDS011;5932;42.656;23.236;2022-08-05T08:43:06;3.50;;;2.70;;
11749;SDS011;5932;42.656;23.236;2022-08-05T08:45:36;4.80;;;3.30;;
11749;SDS011;5932;42.656;23.236;2022-08-05T08:48:04;5.28;;;3.17;;
11749;SDS011;5932;42.656;23.236;2022-08-05T08:50:32;3.97;;;2.60;;
11749;SDS011;5932;42.656;23.236;2022-08-05T08:53:00;3.70;;;2.70;;
11749;SDS011;5932;42.656;23.236;2022-08-05T08:55:29;5.45;;;2.83;;
11749;SDS011;5932;42.656;23.236;2022-08-05T08:57:57;5.45;;;3.10;;
11749;SDS011;5932;42.656;23.236;2022-08-05T09:00:26;9.00;;;2.88;;
11749;SDS011;5932;42.656;23.236;2022-08-05T09:02:53;4.43;;;2.90;;
11749;SDS011;5932;42.656;23.236;2022-08-05T09:05:21;5.03;;;2.80;;
11749;SDS011;5932;42.656;23.236;2022-08-05T09:07:49;4.25;;;2.85;;
11749;SDS011;5932;42.656;23.236;2022-08-05T09:10:16;5.47;;;2.25;;
11749;SDS011;5932;42.656;23.236;2022-08-05T09:12:43;3.85;;;2.47;;
11749;SDS011;5932;42.656;23.236;2022-08-05T09:15:10;5.53;;;2.55;;
11749;SDS011;5932;42.656;23.236;2022-08-05T09:17:39;6.13;;;2.08;;
11749;SDS011;5932;42.656;23.236;2022-08-05T09:20:06;3.67;;;2.47;;
11749;SDS011;5932;42.656;23.236;2022-08-05T09:25:35;7.63;;;2.80;;
11749;SDS011;5932;42.656;23.236;2022-08-05T09:28:11;8.30;;;2.50;;
11749;SDS011;5932;42.656;23.236;2022-08-05T09:30:41;4.80;;;2.30;;
11749;SDS011;5932;42.656;23.236;2022-08-05T09:33:10;3.42;;;2.53;;
11749;SDS011;5932;42.656;23.236;2022-08-05T09:35:37;2.72;;;2.30;;
11749;SDS011;5932;42.656;23.236;2022-08-05T09:38:17;4.65;;;2.55;;
11749;SDS011;5932;42.656;23.236;2022-08-05T09:40:44;3.10;;;2.28;;
11749;SDS011;5932;42.656;23.236;2022-08-05T09:43:24;4.57;;;2.22;;
11749;SDS011;5932;42.656;23.236;2022-08-05T09:45:54;2.97;;;2.20;;
11749;SDS011;5932;42.656;23.236;2022-08-05T09:48:23;2.50;;;2.30;;
11749;SDS011;5932;42.656;23.236;2022-08-05T09:50:51;4.00;;;2.10;;
11749;SDS011;5932;42.656;23.236;2022-08-05T09:53:19;4.45;;;2.42;;
11749;SDS011;5932;42.656;23.236;2022-08-05T09:55:50;3.05;;;2.35;;
11749;SDS011;5932;42.656;23.236;2022-08-05T09:58:18;6.97;;;2.30;;
11749;SDS011;5932;42.656;23.236;2022-08-05T10:00:51;3.00;;;2.58;;
11749;SDS011;5932;42.656;23.236;2022-08-05T10:03:24;6.65;;;2.63;;
11749;SDS011;5932;42.656;23.236;2022-08-05T10:06:01;3.40;;;2.42;;
11749;SDS011;5932;42.656;23.236;2022-08-05T10:08:30;4.15;;;2.30;;
11749;SDS011;5932;42.656;23.236;2022-08-05T10:10:57;2.78;;;2.58;;
11749;SDS011;5932;42.656;23.236;2022-08-05T10:13:28;6.00;;;2.80;;
11749;SDS011;5932;42.656;23.236;2022-08-05T10:15:57;3.78;;;2.65;;
11749;SDS011;5932;42.656;23.236;2022-08-05T10:18:26;2.85;;;2.53;;
11749;SDS011;5932;42.656;23.236;2022-08-05T10:20:57;4.35;;;2.80;;
11749;SDS011;5932;42.656;23.236;2022-08-05T10:23:30;3.35;;;2.13;;
11749;SDS011;5932;42.656;23.236;2022-08-05T10:25:59;4.50;;;2.60;;
11749;SDS011;5932;42.656;23.236;2022-08-05T10:28:28;2.70;;;2.50;;
11749;SDS011;5932;42.656;23.236;2022-08-05T10:30:55;4.10;;;2.38;;
11749;SDS011;5932;42.656;23.236;2022-08-05T10:33:24;3.85;;;2.60;;
11749;SDS011;5932;42.656;23.236;2022-08-05T10:35:56;4.03;;;2.50;;
11749;SDS011;5932;42.656;23.236;2022-08-05T10:38:25;3.25;;;2.20;;
11749;SDS011;5932;42.656;23.236;2022-08-05T10:40:55;3.70;;;2.60;;
11749;SDS011;5932;42.656;23.236;2022-08-05T10:43:34;2.70;;;2.50;;
11749;SDS011;5932;42.656;23.236;2022-08-05T10:46:09;5.10;;;2.60;;
11749;SDS011;5932;42.656;23.236;2022-08-05T10:48:39;4.28;;;2.97;;
11749;SDS011;5932;42.656;23.236;2022-08-05T10:51:08;5.00;;;2.75;;
11749;SDS011;5932;42.656;23.236;2022-08-05T10:53:39;3.10;;;2.80;;
11749;SDS011;5932;42.656;23.236;2022-08-05T10:56:08;5.45;;;2.40;;
11749;SDS011;5932;42.656;23.236;2022-08-05T10:58:48;3.08;;;2.58;;
11749;SDS011;5932;42.656;23.236;2022-08-05T11:01:31;5.47;;;2.75;;
11749;SDS011;5932;42.656;23.236;2022-08-05T11:04:00;5.10;;;2.40;;
11749;SDS011;5932;42.656;23.236;2022-08-05T11:06:29;4.00;;;3.00;;
11749;SDS011;5932;42.656;23.236;2022-08-05T11:09:09;3.75;;;2.67;;
11749;SDS011;5932;42.656;23.236;2022-08-05T11:11:42;3.60;;;2.53;;
11749;SDS011;5932;42.656;23.236;2022-08-05T11:14:11;3.90;;;2.90;;
11749;SDS011;5932;42.656;23.236;2022-08-05T11:16:38;7.03;;;2.90;;
11749;SDS011;5932;42.656;23.236;2022-08-05T11:19:28;3.25;;;2.92;;
11749;SDS011;5932;42.656;23.236;2022-08-05T11:22:02;3.00;;;2.78;;
11749;SDS011;5932;42.656;23.236;2022-08-05T11:31:21;3.03;;;2.72;;
11749;SDS011;5932;42.656;23.236;2022-08-05T11:33:57;3.38;;;2.83;;
11749;SDS011;5932;42.656;23.236;2022-08-05T11:39:19;3.17;;;2.45;;
11749;SDS011;5932;42.656;23.236;2022-08-05T11:42:13;5.97;;;2.90;;
11749;SDS011;5932;42.656;23.236;2022-08-05T11:44:42;4.57;;;3.10;;
11749;SDS011;5932;42.656;23.236;2022-08-05T11:47:09;3.83;;;2.80;;
11749;SDS011;5932;42.656;23.236;2022-08-05T11:49:36;7.43;;;2.90;;
11749;SDS011;5932;42.656;23.236;2022-08-05T11:52:04;4.07;;;2.53;;
11749;SDS011;5932;42.656;23.236;2022-08-05T11:54:31;2.78;;;2.58;;
11749;SDS011;5932;42.656;23.236;2022-08-05T11:57:01;3.95;;;2.60;;
11749;SDS011;5932;42.656;23.236;2022-08-05T11:59:29;3.28;;;2.70;;
11749;SDS011;5932;42.656;23.236;2022-08-05T12:01:58;4.30;;;2.90;;
11749;SDS011;5932;42.656;23.236;2022-08-05T12:04:26;2.90;;;2.40;;
11749;SDS011;5932;42.656;23.236;2022-08-05T12:07:06;3.20;;;2.90;;
11749;SDS011;5932;42.656;23.236;2022-08-05T12:09:37;11.32;;;3.13;;
11749;SDS011;5932;42.656;23.236;2022-08-05T12:12:06;4.07;;;2.75;;
11749;SDS011;5932;42.656;23.236;2022-08-05T12:14:34;5.95;;;3.28;;
11749;SDS011;5932;42.656;23.236;2022-08-05T12:17:05;7.07;;;2.70;;
11749;SDS011;5932;42.656;23.236;2022-08-05T12:19:39;2.97;;;2.70;;
11749;SDS011;5932;42.656;23.236;2022-08-05T12:22:08;6.32;;;2.85;;
11749;SDS011;5932;42.656;23.236;2022-08-05T12:24:39;5.18;;;2.75;;
11749;SDS011;5932;42.656;23.236;2022-08-05T12:27:07;3.20;;;2.70;;
11749;SDS011;5932;42.656;23.236;2022-08-05T12:29:34;4.32;;;2.60;;
11749;SDS011;5932;42.656;23.236;2022-08-05T12:32:01;3.92;;;2.90;;
11749;SDS011;5932;42.656;23.236;2022-08-05T12:34:29;4.75;;;2.78;;
11749;SDS011;5932;42.656;23.236;2022-08-05T12:36:58;3.72;;;2.70;;
11749;SDS011;5932;42.656;23.236;2022-08-05T12:39:36;5.05;;;2.47;;
11749;SDS011;5932;42.656;23.236;2022-08-05T12:42:08;4.60;;;3.00;;
11749;SDS011;5932;42.656;23.236;2022-08-05T12:44:36;3.35;;;2.42;;
11749;SDS011;5932;42.656;23.236;2022-08-05T12:47:04;3.38;;;2.80;;
11749;SDS011;5932;42.656;23.236;2022-08-05T12:49:38;4.28;;;2.55;;
11749;SDS011;5932;42.656;23.236;2022-08-05T12:52:10;3.25;;;2.67;;
11749;SDS011;5932;42.656;23.236;2022-08-05T12:54:39;3.95;;;2.70;;
11749;SDS011;5932;42.656;23.236;2022-08-05T12:57:08;3.33;;;2.60;;
11749;SDS011;5932;42.656;23.236;2022-08-05T12:59:45;3.35;;;2.33;;
11749;SDS011;5932;42.656;23.236;2022-08-05T13:02:15;3.85;;;2.60;;
11749;SDS011;5932;42.656;23.236;2022-08-05T13:04:45;3.58;;;2.60;;
11749;SDS011;5932;42.656;23.236;2022-08-05T13:07:12;3.10;;;2.75;;
11749;SDS011;5932;42.656;23.236;2022-08-05T13:09:47;4.80;;;2.88;;
11749;SDS011;5932;42.656;23.236;2022-08-05T13:12:16;3.38;;;3.00;;
11749;SDS011;5932;42.656;23.236;2022-08-05T13:14:44;3.75;;;2.53;;
11749;SDS011;5932;42.656;23.236;2022-08-05T13:17:16;2.97;;;2.78;;
11749;SDS011;5932;42.656;23.236;2022-08-05T13:19:56;3.20;;;2.72;;
11749;SDS011;5932;42.656;23.236;2022-08-05T13:22:24;2.65;;;2.45;;
11749;SDS011;5932;42.656;23.236;2022-08-05T13:24:52;4.28;;;2.90;;
11749;SDS011;5932;42.656;23.236;2022-08-05T13:27:26;3.10;;;2.85;;
11749;SDS011;5932;42.656;23.236;2022-08-05T13:29:54;2.85;;;2.65;;
11749;SDS011;5932;42.656;23.236;2022-08-05T13:32:20;5.50;;;2.88;;
11749;SDS011;5932;42.656;23.236;2022-08-05T13:34:47;4.10;;;2.60;;
11749;SDS011;5932;42.656;23.236;2022-08-05T13:37:15;3.08;;;2.78;;
11749;SDS011;5932;42.656;23.236;2022-08-05T13:39:42;3.03;;;2.60;;
11749;SDS011;5932;42.656;23.236;2022-08-05T13:42:10;7.13;;;2.92;;
11749;SDS011;5932;42.656;23.236;2022-08-05T13:44:37;5.10;;;2.92;;
11749;SDS011;5932;42.656;23.236;2022-08-05T13:47:04;7.10;;;2.70;;
11749;SDS011;5932;42.656;23.236;2022-08-05T13:49:31;3.30;;;2.80;;
11749;SDS011;5932;42.656;23.236;2022-08-05T13:52:08;4.75;;;2.65;;
11749;SDS011;5932;42.656;23.236;2022-08-05T13:54:35;4.53;;;2.78;;
11749;SDS011;5932;42.656;23.236;2022-08-05T13:57:01;3.58;;;2.88;;
11749;SDS011;5932;42.656;23.236;2022-08-05T13:59:30;2.90;;;2.40;;
11749;SDS011;5932;42.656;23.236;2022-08-05T14:01:57;2.95;;;2.65;;
11749;SDS011;5932;42.656;23.236;2022-08-05T14:04:26;4.22;;;2.80;;
11749;SDS011;5932;42.656;23.236;2022-08-05T14:07:11;4.50;;;2.65;;
11749;SDS011;5932;42.656;23.236;2022-08-05T14:09:38;2.80;;;2.60;;
11749;SDS011;5932;42.656;23.236;2022-08-05T14:12:05;3.10;;;2.90;;
11749;SDS011;5932;42.656;23.236;2022-08-05T14:14:34;2.80;;;2.50;;
11749;SDS011;5932;42.656;23.236;2022-08-05T14:17:00;2.65;;;2.45;;
11749;SDS011;5932;42.656;23.236;2022-08-05T14:19:27;4.32;;;2.70;;
11749;SDS011;5932;42.656;23.236;2022-08-05T14:21:54;2.75;;;2.55;;
11749;SDS011;5932;42.656;23.236;2022-08-05T14:24:21;6.38;;;2.60;;
11749;SDS011;5932;42.656;23.236;2022-08-05T14:26:47;4.78;;;3.00;;
11749;SDS011;5932;42.656;23.236;2022-08-05T14:29:14;2.60;;;2.40;;
11749;SDS011;5932;42.656;23.236;2022-08-05T14:31:42;4.72;;;2.42;;
11749;SDS011;5932;42.656;23.236;2022-08-05T14:34:09;2.80;;;2.50;;
11749;SDS011;5932;42.656;23.236;2022-08-05T14:36:36;3.00;;;2.40;;
11749;SDS011;5932;42.656;23.236;2022-08-05T14:39:03;3.03;;;2.50;;
11749;SDS011;5932;42.656;23.236;2022-08-05T14:41:31;3.40;;;2.40;;
11749;SDS011;5932;42.656;23.236;2022-08-05T14:43:58;3.22;;;2.92;;
11749;SDS011;5932;42.656;23.236;2022-08-05T14:46:25;4.15;;;2.58;;
11749;SDS011;5932;42.656;23.236;2022-08-05T14:48:54;3.25;;;2.58;;
11749;SDS011;5932;42.656;23.236;2022-08-05T14:51:22;3.60;;;2.47;;
11749;SDS011;5932;42.656;23.236;2022-08-05T14:53:49;4.78;;;2.30;;
11749;SDS011;5932;42.656;23.236;2022-08-05T14:56:16;3.78;;;2.45;;
11749;SDS011;5932;42.656;23.236;2022-08-05T14:58:43;2.53;;;2.33;;
11749;SDS011;5932;42.656;23.236;2022-08-05T15:01:09;3.05;;;2.42;;
11749;SDS011;5932;42.656;23.236;2022-08-05T15:03:36;3.95;;;3.05;;
11749;SDS011;5932;42.656;23.236;2022-08-05T15:06:05;2.85;;;2.47;;
11749;SDS011;5932;42.656;23.236;2022-08-05T15:08:32;2.58;;;2.35;;
11749;SDS011;5932;42.656;23.236;2022-08-05T15:10:59;2.65;;;2.20;;